createdAt,value
2022-10-23T00:00:49.845Z,1007.52
2022-10-23T00:01:49.762Z,1007.58
2022-10-23T00:02:49.795Z,1007.58
2022-10-23T00:03:49.716Z,1007.59
2022-10-23T00:04:49.696Z,1007.54
2022-10-23T00:05:49.675Z,1007.56
2022-10-23T00:06:49.648Z,1007.55
2022-10-23T00:07:49.629Z,1007.54
2022-10-23T00:08:49.630Z,1007.55
2022-10-23T00:09:49.597Z,1007.60
2022-10-23T00:10:49.558Z,1007.57
2022-10-23T00:11:49.531Z,1007.57
2022-10-23T00:12:49.512Z,1007.55
2022-10-23T00:13:49.487Z,1007.52
2022-10-23T00:14:49.464Z,1007.54
2022-10-23T00:15:49.486Z,1007.56
2022-10-23T00:16:49.419Z,1007.55
2022-10-23T00:17:49.397Z,1007.58
2022-10-23T00:18:49.373Z,1007.63
2022-10-23T00:19:49.348Z,1007.68
2022-10-23T00:20:49.326Z,1007.66
2022-10-23T00:21:49.305Z,1007.64
2022-10-23T00:22:49.317Z,1007.64
2022-10-23T00:23:49.254Z,1007.62
2022-10-23T00:24:49.235Z,1007.60
2022-10-23T00:25:49.229Z,1007.53
2022-10-23T00:26:49.186Z,1007.57
2022-10-23T00:27:49.166Z,1007.51
2022-10-23T00:28:49.140Z,1007.50
2022-10-23T00:29:49.114Z,1007.48
2022-10-23T00:30:49.093Z,1007.51
2022-10-23T00:31:49.070Z,1007.52
2022-10-23T00:32:49.049Z,1007.54
2022-10-23T00:33:49.022Z,1007.51
2022-10-23T00:34:49.003Z,1007.55
2022-10-23T00:35:48.979Z,1007.51
2022-10-23T00:36:48.957Z,1007.53
2022-10-23T00:37:48.933Z,1007.52
2022-10-23T00:38:48.909Z,1007.50
2022-10-23T00:39:48.885Z,1007.53
2022-10-23T00:41:48.857Z,1007.49
2022-10-23T00:42:48.822Z,1007.50
2022-10-23T00:43:48.792Z,1007.52
2022-10-23T00:44:48.775Z,1007.48
2022-10-23T00:45:48.747Z,1007.48
2022-10-23T00:46:48.725Z,1007.43
2022-10-23T00:47:48.704Z,1007.45
2022-10-23T00:48:48.677Z,1007.40
2022-10-23T00:49:48.654Z,1007.44
2022-10-23T00:50:48.630Z,1007.44
2022-10-23T00:51:48.606Z,1007.47
2022-10-23T00:52:48.588Z,1007.50
2022-10-23T00:53:56.704Z,1007.47
2022-10-23T00:54:48.539Z,1007.52
2022-10-23T00:55:48.514Z,1007.51
2022-10-23T00:56:48.496Z,1007.49
2022-10-23T00:57:48.482Z,1007.50
2022-10-23T00:58:48.445Z,1007.51
2022-10-23T00:59:48.419Z,1007.54
2022-10-23T01:00:48.399Z,1007.58
2022-10-23T01:01:48.544Z,1007.57
2022-10-23T01:02:48.349Z,1007.64
2022-10-23T01:03:48.327Z,1007.67
2022-10-23T01:04:48.307Z,1007.68
2022-10-23T01:06:48.256Z,1007.67
2022-10-23T01:07:48.233Z,1007.63
2022-10-23T01:08:48.210Z,1007.66
2022-10-23T01:09:48.185Z,1007.64
2022-10-23T01:10:48.165Z,1007.63
2022-10-23T01:11:48.139Z,1007.62
2022-10-23T01:12:48.119Z,1007.55
2022-10-23T01:13:48.110Z,1007.52
2022-10-23T01:14:48.076Z,1007.49
2022-10-23T01:15:48.047Z,1007.49
2022-10-23T01:16:48.027Z,1007.52
2022-10-23T01:17:48.194Z,1007.51
2022-10-23T01:18:47.978Z,1007.49
2022-10-23T01:19:47.956Z,1007.46
2022-10-23T01:20:47.932Z,1007.46
2022-10-23T01:21:47.906Z,1007.38
2022-10-23T01:22:47.887Z,1007.39
2022-10-23T01:23:47.865Z,1007.37
2022-10-23T01:24:47.838Z,1007.33
2022-10-23T01:25:47.816Z,1007.36
2022-10-23T01:26:47.792Z,1007.37
2022-10-23T01:27:47.766Z,1007.38
2022-10-23T01:28:47.744Z,1007.39
2022-10-23T01:29:47.740Z,1007.40
2022-10-23T01:30:47.699Z,1007.38
2022-10-23T01:31:47.673Z,1007.40
2022-10-23T01:32:47.653Z,1007.41
2022-10-23T01:33:47.627Z,1007.40
2022-10-23T01:34:47.604Z,1007.43
2022-10-23T01:35:47.579Z,1007.34
2022-10-23T01:36:47.558Z,1007.37
2022-10-23T01:37:47.532Z,1007.38
2022-10-23T01:38:47.516Z,1007.31
2022-10-23T01:39:47.488Z,1007.35
2022-10-23T01:40:47.462Z,1007.30
2022-10-23T01:41:47.438Z,1007.29
2022-10-23T01:42:47.417Z,1007.33
2022-10-23T01:43:47.393Z,1007.36
2022-10-23T01:44:47.372Z,1007.33
2022-10-23T01:45:47.360Z,1007.38
2022-10-23T01:46:47.328Z,1007.34
2022-10-23T01:47:47.297Z,1007.32
2022-10-23T01:48:47.279Z,1007.31
2022-10-23T01:49:47.251Z,1007.32
2022-10-23T01:50:47.229Z,1007.28
2022-10-23T01:51:47.203Z,1007.28
2022-10-23T01:52:47.182Z,1007.29
2022-10-23T01:53:47.155Z,1007.28
2022-10-23T01:54:47.133Z,1007.27
2022-10-23T01:55:47.112Z,1007.26
2022-10-23T01:56:47.088Z,1007.28
2022-10-23T01:57:47.062Z,1007.24
2022-10-23T01:58:47.043Z,1007.21
2022-10-23T01:59:47.016Z,1007.22
2022-10-23T02:00:46.995Z,1007.21
2022-10-23T02:01:47.124Z,1007.18
2022-10-23T02:02:46.946Z,1007.14
2022-10-23T02:03:46.967Z,1007.13
2022-10-23T02:04:46.900Z,1007.15
2022-10-23T02:05:46.874Z,1007.13
2022-10-23T02:06:46.853Z,1007.17
2022-10-23T02:07:46.830Z,1007.16
2022-10-23T02:08:46.805Z,1007.17
2022-10-23T02:09:46.780Z,1007.14
2022-10-23T02:10:46.759Z,1007.14
2022-10-23T02:11:46.730Z,1007.13
2022-10-23T02:12:46.710Z,1007.08
2022-10-23T02:13:46.683Z,1007.02
2022-10-23T02:14:46.666Z,1006.99
2022-10-23T02:15:46.644Z,1006.99
2022-10-23T02:16:46.618Z,1006.93
2022-10-23T02:17:46.610Z,1006.95
2022-10-23T02:18:46.568Z,1006.90
2022-10-23T02:19:46.554Z,1006.92
2022-10-23T02:20:46.525Z,1006.94
2022-10-23T02:21:46.498Z,1006.87
2022-10-23T02:22:46.475Z,1006.87
2022-10-23T02:23:46.451Z,1006.86
2022-10-23T02:24:46.427Z,1006.86
2022-10-23T02:25:46.402Z,1006.87
2022-10-23T02:26:46.379Z,1006.85
2022-10-23T02:27:46.355Z,1006.89
2022-10-23T02:28:46.334Z,1006.81
2022-10-23T02:29:46.311Z,1006.88
2022-10-23T02:30:46.284Z,1006.81
2022-10-23T02:31:46.260Z,1006.79
2022-10-23T02:32:46.237Z,1006.70
2022-10-23T02:33:46.229Z,1006.68
2022-10-23T02:34:46.188Z,1006.72
2022-10-23T02:35:46.165Z,1006.71
2022-10-23T02:36:46.149Z,1006.66
2022-10-23T02:37:46.233Z,1006.68
2022-10-23T02:38:46.095Z,1006.67
2022-10-23T02:39:46.069Z,1006.65
2022-10-23T02:40:46.053Z,1006.64
2022-10-23T02:41:46.024Z,1006.60
2022-10-23T02:42:45.999Z,1006.61
2022-10-23T02:43:45.975Z,1006.55
2022-10-23T02:44:45.954Z,1006.53
2022-10-23T02:45:45.934Z,1006.50
2022-10-23T02:46:45.906Z,1006.51
2022-10-23T02:47:45.941Z,1006.48
2022-10-23T02:48:45.860Z,1006.50
2022-10-23T02:49:45.851Z,1006.47
2022-10-23T02:50:45.809Z,1006.51
2022-10-23T02:51:45.787Z,1006.50
2022-10-23T02:52:45.762Z,1006.47
2022-10-23T02:53:45.773Z,1006.51
2022-10-23T02:54:45.715Z,1006.52
2022-10-23T02:55:45.691Z,1006.52
2022-10-23T02:56:45.672Z,1006.56
2022-10-23T02:57:45.729Z,1006.55
2022-10-23T02:58:45.618Z,1006.54
2022-10-23T02:59:45.597Z,1006.51
2022-10-23T03:00:45.575Z,1006.51
2022-10-23T03:01:45.657Z,1006.48
2022-10-23T03:02:45.528Z,1006.49
2022-10-23T03:03:45.523Z,1006.43
2022-10-23T03:04:45.487Z,1006.44
2022-10-23T03:05:45.471Z,1006.39
2022-10-23T03:06:45.431Z,1006.37
2022-10-23T03:07:45.659Z,1006.40
2022-10-23T03:08:45.385Z,1006.40
2022-10-23T03:09:45.359Z,1006.39
2022-10-23T03:10:45.358Z,1006.40
2022-10-23T03:11:45.311Z,1006.39
2022-10-23T03:12:45.440Z,1006.38
2022-10-23T03:13:45.263Z,1006.38
2022-10-23T03:14:45.243Z,1006.43
2022-10-23T03:15:45.216Z,1006.43
2022-10-23T03:16:45.193Z,1006.42
2022-10-23T03:17:45.166Z,1006.43
2022-10-23T03:18:45.147Z,1006.44
2022-10-23T03:19:45.123Z,1006.48
2022-10-23T03:20:45.096Z,1006.49
2022-10-23T03:21:45.089Z,1006.52
2022-10-23T03:22:45.423Z,1006.55
2022-10-23T03:23:45.027Z,1006.51
2022-10-23T03:24:45.005Z,1006.51
2022-10-23T03:25:44.978Z,1006.50
2022-10-23T03:26:44.956Z,1006.49
2022-10-23T03:27:44.931Z,1006.46
2022-10-23T03:28:44.907Z,1006.45
2022-10-23T03:29:44.881Z,1006.44
2022-10-23T03:30:44.861Z,1006.44
2022-10-23T03:31:44.837Z,1006.43
2022-10-23T03:32:45.145Z,1006.43
2022-10-23T03:33:44.785Z,1006.41
2022-10-23T03:34:44.769Z,1006.44
2022-10-23T03:35:44.774Z,1006.43
2022-10-23T03:36:44.718Z,1006.44
2022-10-23T03:37:44.985Z,1006.39
2022-10-23T03:38:44.672Z,1006.35
2022-10-23T03:39:44.645Z,1006.31
2022-10-23T03:40:44.624Z,1006.30
2022-10-23T03:41:44.597Z,1006.28
2022-10-23T03:42:44.575Z,1006.27
2022-10-23T03:43:44.552Z,1006.30
2022-10-23T03:44:44.527Z,1006.32
2022-10-23T03:45:44.500Z,1006.31
2022-10-23T03:46:44.480Z,1006.31
2022-10-23T03:47:44.766Z,1006.26
2022-10-23T03:48:44.434Z,1006.23
2022-10-23T03:49:44.407Z,1006.26
2022-10-23T03:50:44.385Z,1006.25
2022-10-23T03:51:44.359Z,1006.26
2022-10-23T03:52:44.813Z,1006.19
2022-10-23T03:53:44.329Z,1006.22
2022-10-23T03:54:44.289Z,1006.21
2022-10-23T03:55:44.263Z,1006.19
2022-10-23T03:56:44.243Z,1006.22
2022-10-23T03:57:44.220Z,1006.25
2022-10-23T03:58:44.195Z,1006.22
2022-10-23T03:59:44.170Z,1006.18
2022-10-23T04:00:44.233Z,1006.13
2022-10-23T04:01:44.281Z,1006.12
2022-10-23T04:02:44.576Z,1006.10
2022-10-23T04:03:44.076Z,1006.09
2022-10-23T04:04:44.054Z,1006.03
2022-10-23T04:05:44.028Z,1006.01
2022-10-23T04:06:44.005Z,1006.00
2022-10-23T04:07:43.979Z,1006.00
2022-10-23T04:08:43.962Z,1006.03
2022-10-23T04:09:43.955Z,1006.02
2022-10-23T04:10:43.924Z,1005.98
2022-10-23T04:11:43.884Z,1005.98
2022-10-23T04:12:44.155Z,1006.00
2022-10-23T04:13:43.838Z,1006.01
2022-10-23T04:14:43.814Z,1006.04
2022-10-23T04:15:43.791Z,1006.08
2022-10-23T04:16:43.766Z,1006.03
2022-10-23T04:17:43.743Z,1006.04
2022-10-23T04:18:43.716Z,1006.01
2022-10-23T04:19:43.697Z,1005.99
2022-10-23T04:20:43.672Z,1005.94
2022-10-23T04:21:43.647Z,1005.95
2022-10-23T04:22:44.045Z,1005.95
2022-10-23T04:23:43.603Z,1005.99
2022-10-23T04:24:43.575Z,1005.95
2022-10-23T04:25:43.689Z,1005.98
2022-10-23T04:26:43.532Z,1005.98
2022-10-23T04:27:43.749Z,1005.94
2022-10-23T04:28:43.484Z,1005.95
2022-10-23T04:29:43.459Z,1005.99
2022-10-23T04:30:43.437Z,1005.95
2022-10-23T04:31:43.413Z,1005.94
2022-10-23T04:32:43.385Z,1005.99
2022-10-23T04:33:43.366Z,1005.96
2022-10-23T04:34:43.340Z,1005.95
2022-10-23T04:35:43.319Z,1005.94
2022-10-23T04:36:43.296Z,1005.96
2022-10-23T04:37:43.521Z,1005.95
2022-10-23T04:38:43.245Z,1005.93
2022-10-23T04:39:43.226Z,1005.97
2022-10-23T04:40:43.197Z,1005.98
2022-10-23T04:41:43.193Z,1005.97
2022-10-23T04:42:43.434Z,1005.99
2022-10-23T04:43:43.129Z,1005.97
2022-10-23T04:44:43.102Z,1005.97
2022-10-23T04:45:43.082Z,1005.96
2022-10-23T04:46:43.056Z,1005.94
2022-10-23T04:47:43.035Z,1005.97
2022-10-23T04:48:43.014Z,1005.93
2022-10-23T04:49:42.987Z,1005.92
2022-10-23T04:50:43.050Z,1005.92
2022-10-23T04:51:42.937Z,1005.90
2022-10-23T04:52:43.152Z,1005.92
2022-10-23T04:53:42.892Z,1005.93
2022-10-23T04:54:42.866Z,1005.88
2022-10-23T04:55:42.843Z,1005.87
2022-10-23T04:56:42.825Z,1005.87
2022-10-23T04:57:42.812Z,1005.85
2022-10-23T04:58:42.770Z,1005.84
2022-10-23T04:59:42.750Z,1005.83
2022-10-23T05:00:42.767Z,1005.82
2022-10-23T05:01:42.762Z,1005.79
2022-10-23T05:02:43.042Z,1005.78
2022-10-23T05:03:42.656Z,1005.73
2022-10-23T05:04:42.630Z,1005.75
2022-10-23T05:05:42.606Z,1005.76
2022-10-23T05:06:42.581Z,1005.73
2022-10-23T05:07:42.863Z,1005.66
2022-10-23T05:08:42.533Z,1005.69
2022-10-23T05:09:42.510Z,1005.63
2022-10-23T05:10:42.489Z,1005.60
2022-10-23T05:11:42.462Z,1005.60
2022-10-23T05:12:42.440Z,1005.56
2022-10-23T05:13:42.433Z,1005.60
2022-10-23T05:14:42.394Z,1005.62
2022-10-23T05:16:42.349Z,1005.67
2022-10-23T05:17:42.598Z,1005.65
2022-10-23T05:18:42.296Z,1005.64
2022-10-23T05:19:42.277Z,1005.64
2022-10-23T05:20:42.249Z,1005.65
2022-10-23T05:21:42.226Z,1005.61
2022-10-23T05:22:42.201Z,1005.61
2022-10-23T05:23:42.181Z,1005.63
2022-10-23T05:24:42.782Z,1005.61
2022-10-23T05:25:42.131Z,1005.61
2022-10-23T05:26:42.115Z,1005.57
2022-10-23T05:27:42.491Z,1005.58
2022-10-23T05:28:42.059Z,1005.57
2022-10-23T05:29:42.054Z,1005.54
2022-10-23T05:30:42.010Z,1005.49
2022-10-23T05:31:41.987Z,1005.51
2022-10-23T05:32:42.203Z,1005.50
2022-10-23T05:33:41.937Z,1005.46
2022-10-23T05:34:41.915Z,1005.44
2022-10-23T05:35:41.894Z,1005.45
2022-10-23T05:36:41.867Z,1005.43
2022-10-23T05:37:41.844Z,1005.44
2022-10-23T05:38:41.820Z,1005.37
2022-10-23T05:39:41.799Z,1005.37
2022-10-23T05:40:41.774Z,1005.37
2022-10-23T05:41:41.748Z,1005.35
2022-10-23T05:42:41.929Z,1005.38
2022-10-23T05:43:41.702Z,1005.42
2022-10-23T05:44:41.677Z,1005.43
2022-10-23T05:45:41.675Z,1005.47
2022-10-23T05:46:41.628Z,1005.48
2022-10-23T05:47:41.610Z,1005.47
2022-10-23T05:48:41.582Z,1005.48
2022-10-23T05:49:41.558Z,1005.41
2022-10-23T05:50:41.533Z,1005.35
2022-10-23T05:51:41.516Z,1005.37
2022-10-23T05:52:41.822Z,1005.35
2022-10-23T05:53:42.545Z,1005.32
2022-10-23T05:54:41.437Z,1005.30
2022-10-23T05:55:41.415Z,1005.34
2022-10-23T05:56:41.392Z,1005.32
2022-10-23T05:57:41.760Z,1005.34
2022-10-23T05:58:41.344Z,1005.36
2022-10-23T05:59:41.322Z,1005.35
2022-10-23T06:00:41.295Z,1005.34
2022-10-23T06:01:41.441Z,1005.32
2022-10-23T06:02:41.290Z,1005.36
2022-10-23T06:03:41.224Z,1005.31
2022-10-23T06:04:41.201Z,1005.31
2022-10-23T06:05:41.180Z,1005.26
2022-10-23T06:06:41.151Z,1005.23
2022-10-23T06:07:41.332Z,1005.26
2022-10-23T06:08:41.102Z,1005.24
2022-10-23T06:09:41.083Z,1005.22
2022-10-23T06:10:41.057Z,1005.22
2022-10-23T06:11:41.043Z,1005.23
2022-10-23T06:12:41.009Z,1005.19
2022-10-23T06:13:40.988Z,1005.23
2022-10-23T06:14:40.958Z,1005.23
2022-10-23T06:15:40.951Z,1005.22
2022-10-23T06:16:40.913Z,1005.23
2022-10-23T06:17:41.295Z,1005.20
2022-10-23T06:18:40.881Z,1005.18
2022-10-23T06:19:40.841Z,1005.17
2022-10-23T06:20:40.815Z,1005.11
2022-10-23T06:21:40.791Z,1005.15
2022-10-23T06:22:41.014Z,1005.18
2022-10-23T06:23:40.748Z,1005.16
2022-10-23T06:24:40.720Z,1005.17
2022-10-23T06:25:40.698Z,1005.15
2022-10-23T06:26:40.672Z,1005.13
2022-10-23T06:27:40.650Z,1005.11
2022-10-23T06:28:40.623Z,1005.14
2022-10-23T06:29:40.601Z,1005.10
2022-10-23T06:30:40.582Z,1005.12
2022-10-23T06:31:40.551Z,1005.12
2022-10-23T06:32:40.813Z,1005.12
2022-10-23T06:33:40.520Z,1005.16
2022-10-23T06:34:40.481Z,1005.15
2022-10-23T06:35:40.460Z,1005.18
2022-10-23T06:36:40.433Z,1005.15
2022-10-23T06:37:40.414Z,1005.15
2022-10-23T06:38:40.708Z,1005.08
2022-10-23T06:39:40.366Z,1005.04
2022-10-23T06:40:40.338Z,1005.03
2022-10-23T06:41:40.314Z,1005.01
2022-10-23T06:42:40.584Z,1004.95
2022-10-23T06:43:40.269Z,1004.92
2022-10-23T06:44:40.244Z,1004.89
2022-10-23T06:45:40.217Z,1004.90
2022-10-23T06:46:40.195Z,1004.91
2022-10-23T06:47:40.273Z,1004.86
2022-10-23T06:48:40.189Z,1004.93
2022-10-23T06:49:40.140Z,1004.97
2022-10-23T06:50:40.097Z,1004.99
2022-10-23T06:51:40.079Z,1005.05
2022-10-23T06:52:47.100Z,1005.06
2022-10-23T06:53:40.032Z,1005.08
2022-10-23T06:54:40.002Z,1005.07
2022-10-23T06:55:40.031Z,1005.05
2022-10-23T06:56:39.956Z,1005.02
2022-10-23T06:57:40.163Z,1005.00
2022-10-23T06:58:39.905Z,1004.99
2022-10-23T06:59:39.886Z,1004.97
2022-10-23T07:00:39.930Z,1004.99
2022-10-23T07:01:40.086Z,1005.03
2022-10-23T07:02:39.987Z,1005.07
2022-10-23T07:03:39.788Z,1005.04
2022-10-23T07:04:39.764Z,1005.08
2022-10-23T07:05:39.757Z,1005.07
2022-10-23T07:06:39.716Z,1005.07
2022-10-23T07:07:39.696Z,1005.06
2022-10-23T07:08:39.668Z,1005.08
2022-10-23T07:09:39.660Z,1005.12
2022-10-23T07:10:39.622Z,1005.12
2022-10-23T07:11:39.603Z,1005.14
2022-10-23T07:12:39.709Z,1005.12
2022-10-23T07:13:39.550Z,1005.11
2022-10-23T07:14:39.525Z,1005.11
2022-10-23T07:15:39.502Z,1005.14
2022-10-23T07:16:39.479Z,1005.16
2022-10-23T07:17:39.459Z,1005.17
2022-10-23T07:18:39.430Z,1005.18
2022-10-23T07:19:39.409Z,1005.14
2022-10-23T07:20:39.382Z,1005.15
2022-10-23T07:21:39.377Z,1005.11
2022-10-23T07:22:39.334Z,1005.12
2022-10-23T07:23:39.313Z,1005.12
2022-10-23T07:24:39.291Z,1005.09
2022-10-23T07:25:39.267Z,1005.08
2022-10-23T07:26:39.274Z,1005.05
2022-10-23T07:27:39.361Z,1005.04
2022-10-23T07:28:39.197Z,1005.02
2022-10-23T07:29:39.171Z,1005.06
2022-10-23T07:30:39.146Z,1005.05
2022-10-23T07:31:39.123Z,1005.07
2022-10-23T07:32:39.098Z,1005.08
2022-10-23T07:33:39.073Z,1005.07
2022-10-23T07:34:39.053Z,1005.02
2022-10-23T07:35:39.388Z,1005.02
2022-10-23T07:36:39.012Z,1005.04
2022-10-23T07:37:39.001Z,1005.05
2022-10-23T07:38:38.955Z,1005.08
2022-10-23T07:39:38.933Z,1005.03
2022-10-23T07:40:38.911Z,1005.00
2022-10-23T07:41:38.887Z,1004.99
2022-10-23T07:42:38.861Z,1004.99
2022-10-23T07:43:38.848Z,1004.95
2022-10-23T07:44:38.815Z,1004.99
2022-10-23T07:45:38.791Z,1004.97
2022-10-23T07:46:38.764Z,1004.99
2022-10-23T07:47:38.744Z,1005.01
2022-10-23T07:48:38.721Z,1004.97
2022-10-23T07:49:38.697Z,1005.02
2022-10-23T07:50:38.672Z,1005.00
2022-10-23T07:51:38.650Z,1004.99
2022-10-23T07:52:38.624Z,1005.03
2022-10-23T07:53:38.622Z,1004.99
2022-10-23T07:54:38.578Z,1004.98
2022-10-23T07:55:38.555Z,1004.93
2022-10-23T07:56:38.530Z,1004.90
2022-10-23T07:57:38.507Z,1004.88
2022-10-23T07:58:38.483Z,1004.84
2022-10-23T07:59:38.461Z,1004.82
2022-10-23T08:00:38.448Z,1004.85
2022-10-23T08:01:38.596Z,1004.80
2022-10-23T08:02:38.389Z,1004.74
2022-10-23T08:03:38.367Z,1004.78
2022-10-23T08:04:38.343Z,1004.82
2022-10-23T08:05:38.320Z,1004.87
2022-10-23T08:06:38.301Z,1004.84
2022-10-23T08:07:38.274Z,1004.86
2022-10-23T08:08:38.289Z,1004.86
2022-10-23T08:09:38.243Z,1004.81
2022-10-23T08:10:38.199Z,1004.83
2022-10-23T08:11:38.179Z,1004.87
2022-10-23T08:12:38.153Z,1004.87
2022-10-23T08:13:38.131Z,1004.80
2022-10-23T08:14:38.108Z,1004.84
2022-10-23T08:15:38.085Z,1004.82
2022-10-23T08:16:38.060Z,1004.83
2022-10-23T08:17:38.038Z,1004.83
2022-10-23T08:18:38.010Z,1004.85
2022-10-23T08:19:37.989Z,1004.80
2022-10-23T08:20:37.963Z,1004.80
2022-10-23T08:21:37.943Z,1004.79
2022-10-23T08:22:37.920Z,1004.75
2022-10-23T08:23:37.896Z,1004.73
2022-10-23T08:24:37.886Z,1004.73
2022-10-23T08:25:37.868Z,1004.73
2022-10-23T08:26:37.833Z,1004.73
2022-10-23T08:27:37.799Z,1004.76
2022-10-23T08:28:37.776Z,1004.76
2022-10-23T08:29:37.753Z,1004.75
2022-10-23T08:30:37.732Z,1004.76
2022-10-23T08:31:37.705Z,1004.69
2022-10-23T08:32:37.685Z,1004.70
2022-10-23T08:33:37.722Z,1004.68
2022-10-23T08:34:37.637Z,1004.64
2022-10-23T08:35:37.614Z,1004.62
2022-10-23T08:36:37.590Z,1004.63
2022-10-23T08:37:37.569Z,1004.68
2022-10-23T08:38:37.546Z,1004.64
2022-10-23T08:39:37.520Z,1004.65
2022-10-23T08:40:37.499Z,1004.66
2022-10-23T08:41:37.487Z,1004.66
2022-10-23T08:42:37.450Z,1004.61
2022-10-23T08:43:37.425Z,1004.64
2022-10-23T08:44:37.408Z,1004.58
2022-10-23T08:45:37.378Z,1004.61
2022-10-23T08:46:37.364Z,1004.63
2022-10-23T08:47:37.331Z,1004.61
2022-10-23T08:48:37.309Z,1004.53
2022-10-23T08:49:37.362Z,1004.51
2022-10-23T08:50:37.373Z,1004.52
2022-10-23T08:51:37.371Z,1004.56
2022-10-23T08:52:37.218Z,1004.52
2022-10-23T08:53:37.194Z,1004.49
2022-10-23T08:54:37.171Z,1004.50
2022-10-23T08:55:37.148Z,1004.51
2022-10-23T08:56:37.125Z,1004.50
2022-10-23T08:57:40.062Z,1004.48
2022-10-23T08:58:37.075Z,1004.50
2022-10-23T08:59:37.050Z,1004.48
2022-10-23T09:00:37.111Z,1004.46
2022-10-23T09:01:37.131Z,1004.44
2022-10-23T09:02:36.986Z,1004.45
2022-10-23T09:03:36.959Z,1004.43
2022-10-23T09:04:36.935Z,1004.33
2022-10-23T09:05:36.910Z,1004.33
2022-10-23T09:06:36.894Z,1004.33
2022-10-23T09:07:36.865Z,1004.37
2022-10-23T09:08:36.842Z,1004.36
2022-10-23T09:09:36.816Z,1004.35
2022-10-23T09:10:36.879Z,1004.41
2022-10-23T09:11:36.773Z,1004.32
2022-10-23T09:12:36.752Z,1004.30
2022-10-23T09:13:36.750Z,1004.31
2022-10-23T09:14:36.704Z,1004.26
2022-10-23T09:15:36.689Z,1004.28
2022-10-23T09:16:36.658Z,1004.26
2022-10-23T09:17:36.632Z,1004.22
2022-10-23T09:18:36.613Z,1004.20
2022-10-23T09:19:36.587Z,1004.18
2022-10-23T09:20:36.566Z,1004.18
2022-10-23T09:21:36.540Z,1004.20
2022-10-23T09:22:36.520Z,1004.16
2022-10-23T09:23:36.500Z,1004.16
2022-10-23T09:24:36.481Z,1004.16
2022-10-23T09:25:36.449Z,1004.10
2022-10-23T09:26:36.428Z,1004.12
2022-10-23T09:27:36.402Z,1004.07
2022-10-23T09:28:36.384Z,1004.04
2022-10-23T09:29:36.373Z,1004.03
2022-10-23T09:30:36.338Z,1003.98
2022-10-23T09:31:36.309Z,1003.99
2022-10-23T09:32:36.289Z,1003.96
2022-10-23T09:33:36.264Z,1003.93
2022-10-23T09:34:36.240Z,1003.96
2022-10-23T09:35:36.217Z,1003.98
2022-10-23T09:36:36.196Z,1004.01
2022-10-23T09:37:36.172Z,1004.00
2022-10-23T09:38:36.153Z,1003.96
2022-10-23T09:39:36.127Z,1003.95
2022-10-23T09:40:36.107Z,1003.94
2022-10-23T09:41:36.081Z,1003.92
2022-10-23T09:42:36.071Z,1003.94
2022-10-23T09:43:36.040Z,1003.94
2022-10-23T09:44:36.016Z,1003.92
2022-10-23T09:45:36.010Z,1003.91
2022-10-23T09:46:35.971Z,1003.90
2022-10-23T09:47:35.949Z,1003.92
2022-10-23T09:48:35.927Z,1003.89
2022-10-23T09:49:35.899Z,1003.84
2022-10-23T09:50:35.879Z,1003.83
2022-10-23T09:51:35.856Z,1003.81
2022-10-23T09:52:35.834Z,1003.81
2022-10-23T09:53:35.810Z,1003.84
2022-10-23T09:54:35.789Z,1003.85
2022-10-23T09:55:35.768Z,1003.80
2022-10-23T09:56:35.788Z,1003.78
2022-10-23T09:57:35.718Z,1003.73
2022-10-23T09:58:35.701Z,1003.72
2022-10-23T09:59:35.675Z,1003.68
2022-10-23T10:00:35.654Z,1003.71
2022-10-23T10:01:35.804Z,1003.72
2022-10-23T10:02:35.608Z,1003.73
2022-10-23T10:03:35.586Z,1003.73
2022-10-23T10:04:35.565Z,1003.72
2022-10-23T10:05:35.545Z,1003.72
2022-10-23T10:06:35.614Z,1003.69
2022-10-23T10:07:36.808Z,1003.74
2022-10-23T10:08:35.485Z,1003.73
2022-10-23T10:09:35.449Z,1003.76
2022-10-23T10:10:35.433Z,1003.76
2022-10-23T10:11:35.410Z,1003.71
2022-10-23T10:12:35.384Z,1003.74
2022-10-23T10:13:35.362Z,1003.70
2022-10-23T10:14:35.338Z,1003.73
2022-10-23T10:15:35.316Z,1003.78
2022-10-23T10:16:35.368Z,1003.78
2022-10-23T10:17:35.286Z,1003.76
2022-10-23T10:18:35.249Z,1003.73
2022-10-23T10:19:35.226Z,1003.70
2022-10-23T10:20:35.204Z,1003.68
2022-10-23T10:21:35.181Z,1003.72
2022-10-23T10:22:35.159Z,1003.71
2022-10-23T10:23:35.136Z,1003.75
2022-10-23T10:24:35.117Z,1003.72
2022-10-23T10:25:35.092Z,1003.73
2022-10-23T10:26:35.075Z,1003.71
2022-10-23T10:27:35.046Z,1003.73
2022-10-23T10:28:35.026Z,1003.76
2022-10-23T10:29:35.003Z,1003.72
2022-10-23T10:30:34.981Z,1003.69
2022-10-23T10:31:34.957Z,1003.65
2022-10-23T10:32:34.935Z,1003.67
2022-10-23T10:33:34.931Z,1003.63
2022-10-23T10:34:34.892Z,1003.62
2022-10-23T10:35:34.870Z,1003.58
2022-10-23T10:36:34.850Z,1003.56
2022-10-23T10:37:34.825Z,1003.52
2022-10-23T10:38:34.908Z,1003.52
2022-10-23T10:39:34.781Z,1003.54
2022-10-23T10:40:34.761Z,1003.52
2022-10-23T10:41:34.735Z,1003.48
2022-10-23T10:42:34.715Z,1003.48
2022-10-23T10:43:34.691Z,1003.48
2022-10-23T10:44:34.676Z,1003.43
2022-10-23T10:45:34.648Z,1003.38
2022-10-23T10:46:34.625Z,1003.41
2022-10-23T10:47:34.603Z,1003.35
2022-10-23T10:48:34.586Z,1003.34
2022-10-23T10:49:34.575Z,1003.28
2022-10-23T10:50:34.538Z,1003.25
2022-10-23T10:51:34.522Z,1003.22
2022-10-23T10:52:34.494Z,1003.17
2022-10-23T10:53:34.473Z,1003.17
2022-10-23T10:54:34.452Z,1003.17
2022-10-23T10:55:34.427Z,1003.14
2022-10-23T10:56:34.406Z,1003.18
2022-10-23T10:57:34.382Z,1003.18
2022-10-23T10:58:34.366Z,1003.17
2022-10-23T10:59:34.341Z,1003.16
2022-10-23T11:00:34.319Z,1003.15
2022-10-23T11:01:34.473Z,1003.13
2022-10-23T11:02:34.275Z,1003.15
2022-10-23T11:03:37.619Z,1003.09
2022-10-23T11:04:34.229Z,1003.11
2022-10-23T11:05:34.227Z,1003.08
2022-10-23T11:06:34.186Z,1003.03
2022-10-23T11:07:34.161Z,1003.01
2022-10-23T11:08:44.455Z,1002.99
2022-10-23T11:09:34.119Z,1003.01
2022-10-23T11:10:34.100Z,1002.95
2022-10-23T11:11:34.080Z,1002.96
2022-10-23T11:12:34.057Z,1002.93
2022-10-23T11:13:34.032Z,1002.88
2022-10-23T11:14:34.011Z,1002.87
2022-10-23T11:15:33.987Z,1002.86
2022-10-23T11:16:33.970Z,1002.77
2022-10-23T11:17:33.945Z,1002.78
2022-10-23T11:18:33.924Z,1002.76
2022-10-23T11:19:33.900Z,1002.73
2022-10-23T11:20:33.882Z,1002.70
2022-10-23T11:21:33.877Z,1002.66
2022-10-23T11:22:33.836Z,1002.66
2022-10-23T11:23:33.812Z,1002.59
2022-10-23T11:24:33.798Z,1002.58
2022-10-23T11:25:33.770Z,1002.57
2022-10-23T11:26:33.753Z,1002.56
2022-10-23T11:27:33.727Z,1002.57
2022-10-23T11:28:33.706Z,1002.52
2022-10-23T11:29:33.684Z,1002.53
2022-10-23T11:30:33.669Z,1002.50
2022-10-23T11:31:33.641Z,1002.50
2022-10-23T11:33:33.596Z,1002.34
2022-10-23T11:34:33.578Z,1002.38
2022-10-23T11:35:33.554Z,1002.29
2022-10-23T11:36:33.535Z,1002.27
2022-10-23T11:37:33.527Z,1002.28
2022-10-23T11:38:33.491Z,1002.27
2022-10-23T11:39:33.468Z,1002.25
2022-10-23T11:40:33.450Z,1002.24
2022-10-23T11:41:33.433Z,1002.24
2022-10-23T11:42:33.405Z,1002.20
2022-10-23T11:43:33.384Z,1002.17
2022-10-23T11:44:33.364Z,1002.13
2022-10-23T11:45:33.339Z,1002.13
2022-10-23T11:46:33.319Z,1002.11
2022-10-23T11:47:38.862Z,1002.02
2022-10-23T11:48:33.278Z,1002.01
2022-10-23T11:49:33.252Z,1001.96
2022-10-23T11:50:33.234Z,1001.95
2022-10-23T11:51:33.209Z,1001.92
2022-10-23T11:52:34.422Z,1001.90
2022-10-23T11:53:33.186Z,1001.90
2022-10-23T11:54:33.147Z,1001.90
2022-10-23T11:55:33.127Z,1001.86
2022-10-23T11:56:33.106Z,1001.77
2022-10-23T11:57:33.086Z,1001.78
2022-10-23T11:58:33.062Z,1001.77
2022-10-23T11:59:33.037Z,1001.72
2022-10-23T12:00:33.035Z,1001.66
2022-10-23T12:01:33.081Z,1001.67
2022-10-23T12:02:33.101Z,1001.64
2022-10-23T12:03:32.952Z,1001.61
2022-10-23T12:04:32.935Z,1001.57
2022-10-23T12:05:32.909Z,1001.60
2022-10-23T12:06:32.888Z,1001.61
2022-10-23T12:07:32.866Z,1001.64
2022-10-23T12:08:32.848Z,1001.64
2022-10-23T12:09:32.842Z,1001.63